sensor_id;sensor_type;location;lat;lon;timestamp;temperature;humidity
43651;DHT22;29247;50.944;5.382;2022-11-04T00:01:52;13.40;80.50
43651;DHT22;29247;50.944;5.382;2022-11-04T00:04:22;13.40;80.60
43651;DHT22;29247;50.944;5.382;2022-11-04T00:06:48;13.40;80.70
43651;DHT22;29247;50.944;5.382;2022-11-04T00:09:21;13.40;80.70
43651;DHT22;29247;50.944;5.382;2022-11-04T00:11:47;13.30;80.80
43651;DHT22;29247;50.944;5.382;2022-11-04T00:14:35;13.30;80.80
43651;DHT22;29247;50.944;5.382;2022-11-04T00:17:03;13.30;80.80
43651;DHT22;29247;50.944;5.382;2022-11-04T00:19:54;13.30;80.80
43651;DHT22;29247;50.944;5.382;2022-11-04T00:22:40;13.30;80.90
43651;DHT22;29247;50.944;5.382;2022-11-04T00:25:24;13.20;80.70
43651;DHT22;29247;50.944;5.382;2022-11-04T00:28:19;13.20;80.70
43651;DHT22;29247;50.944;5.382;2022-11-04T00:31:07;13.20;80.80
43651;DHT22;29247;50.944;5.382;2022-11-04T00:33:56;13.20;80.90
43651;DHT22;29247;50.944;5.382;2022-11-04T00:36:22;13.10;80.80
43651;DHT22;29247;50.944;5.382;2022-11-04T00:38:48;13.20;80.80
43651;DHT22;29247;50.944;5.382;2022-11-04T00:41:14;13.10;80.70
43651;DHT22;29247;50.944;5.382;2022-11-04T00:43:56;13.10;80.80
43651;DHT22;29247;50.944;5.382;2022-11-04T00:46:22;13.00;80.90
43651;DHT22;29247;50.944;5.382;2022-11-04T00:48:51;13.00;81.00
43651;DHT22;29247;50.944;5.382;2022-11-04T00:51:16;13.00;81.00
43651;DHT22;29247;50.944;5.382;2022-11-04T00:53:42;13.00;81.00
43651;DHT22;29247;50.944;5.382;2022-11-04T00:56:08;13.00;81.00
43651;DHT22;29247;50.944;5.382;2022-11-04T00:58:34;13.00;81.00
43651;DHT22;29247;50.944;5.382;2022-11-04T01:01:01;12.90;81.00
43651;DHT22;29247;50.944;5.382;2022-11-04T01:03:33;12.90;80.80
43651;DHT22;29247;50.944;5.382;2022-11-04T01:06:01;12.90;80.80
43651;DHT22;29247;50.944;5.382;2022-11-04T01:08:29;12.90;80.80
43651;DHT22;29247;50.944;5.382;2022-11-04T01:10:54;12.90;80.90
43651;DHT22;29247;50.944;5.382;2022-11-04T01:13:21;12.90;80.90
43651;DHT22;29247;50.944;5.382;2022-11-04T01:15:46;12.90;80.90
43651;DHT22;29247;50.944;5.382;2022-11-04T01:18:12;12.80;80.90
43651;DHT22;29247;50.944;5.382;2022-11-04T01:20:37;12.80;80.90
43651;DHT22;29247;50.944;5.382;2022-11-04T01:23:06;12.80;80.90
43651;DHT22;29247;50.944;5.382;2022-11-04T01:25:32;12.80;80.90
43651;DHT22;29247;50.944;5.382;2022-11-04T01:28:02;12.80;80.80
43651;DHT22;29247;50.944;5.382;2022-11-04T01:30:31;12.80;80.90
43651;DHT22;29247;50.944;5.382;2022-11-04T01:32:56;12.80;80.90
43651;DHT22;29247;50.944;5.382;2022-11-04T01:35:22;12.70;80.80
43651;DHT22;29247;50.944;5.382;2022-11-04T01:37:48;12.70;80.90
43651;DHT22;29247;50.944;5.382;2022-11-04T01:40:18;12.70;80.80
43651;DHT22;29247;50.944;5.382;2022-11-04T01:42:46;12.70;80.80
43651;DHT22;29247;50.944;5.382;2022-11-04T01:45:16;12.70;80.80
43651;DHT22;29247;50.944;5.382;2022-11-04T01:47:58;12.60;80.90
43651;DHT22;29247;50.944;5.382;2022-11-04T01:50:31;12.60;80.90
43651;DHT22;29247;50.944;5.382;2022-11-04T01:53:12;12.60;80.90
43651;DHT22;29247;50.944;5.382;2022-11-04T01:55:50;12.60;81.00
43651;DHT22;29247;50.944;5.382;2022-11-04T01:58:20;12.60;81.00
43651;DHT22;29247;50.944;5.382;2022-11-04T02:00:50;12.60;81.00
43651;DHT22;29247;50.944;5.382;2022-11-04T02:05:47;12.50;81.00
43651;DHT22;29247;50.944;5.382;2022-11-04T02:08:17;12.50;81.00
43651;DHT22;29247;50.944;5.382;2022-11-04T02:11:00;12.50;81.00
43651;DHT22;29247;50.944;5.382;2022-11-04T02:13:30;12.50;81.00
43651;DHT22;29247;50.944;5.382;2022-11-04T02:35:10;12.40;81.40
43651;DHT22;29247;50.944;5.382;2022-11-04T02:43:58;12.40;81.30
43651;DHT22;29247;50.944;5.382;2022-11-04T02:46:38;12.40;81.30
43651;DHT22;29247;50.944;5.382;2022-11-04T02:49:22;12.40;81.30
43651;DHT22;29247;50.944;5.382;2022-11-04T02:52:08;12.30;81.20
43651;DHT22;29247;50.944;5.382;2022-11-04T02:54:40;12.30;81.20
43651;DHT22;29247;50.944;5.382;2022-11-04T02:57:14;12.30;81.20
43651;DHT22;29247;50.944;5.382;2022-11-04T02:59:58;12.30;81.20
43651;DHT22;29247;50.944;5.382;2022-11-04T03:02:46;12.30;81.20
43651;DHT22;29247;50.944;5.382;2022-11-04T03:05:31;12.30;81.20
43651;DHT22;29247;50.944;5.382;2022-11-04T03:08:03;12.30;81.20
43651;DHT22;29247;50.944;5.382;2022-11-04T03:10:41;12.30;81.20
43651;DHT22;29247;50.944;5.382;2022-11-04T03:13:22;12.20;81.10
43651;DHT22;29247;50.944;5.382;2022-11-04T03:16:14;12.20;81.10
43651;DHT22;29247;50.944;5.382;2022-11-04T03:18:59;12.20;81.10
43651;DHT22;29247;50.944;5.382;2022-11-04T03:21:32;12.20;81.00
43651;DHT22;29247;50.944;5.382;2022-11-04T03:24:00;12.20;81.00
43651;DHT22;29247;50.944;5.382;2022-11-04T03:26:38;12.10;81.10
43651;DHT22;29247;50.944;5.382;2022-11-04T03:32:03;12.10;80.90
43651;DHT22;29247;50.944;5.382;2022-11-04T03:34:35;12.00;80.90
43651;DHT22;29247;50.944;5.382;2022-11-04T03:37:02;12.10;80.80
43651;DHT22;29247;50.944;5.382;2022-11-04T03:39:31;12.00;80.80
43651;DHT22;29247;50.944;5.382;2022-11-04T03:42:01;12.00;81.10
43651;DHT22;29247;50.944;5.382;2022-11-04T03:44:30;12.00;81.20
43651;DHT22;29247;50.944;5.382;2022-11-04T03:46:56;12.00;81.40
43651;DHT22;29247;50.944;5.382;2022-11-04T03:49:24;12.00;81.40
43651;DHT22;29247;50.944;5.382;2022-11-04T03:51:51;12.00;81.50
43651;DHT22;29247;50.944;5.382;2022-11-04T03:54:17;11.90;81.50
43651;DHT22;29247;50.944;5.382;2022-11-04T03:59:27;12.00;81.60
43651;DHT22;29247;50.944;5.382;2022-11-04T04:02:08;11.90;81.50
43651;DHT22;29247;50.944;5.382;2022-11-04T04:04:39;11.90;81.60
43651;DHT22;29247;50.944;5.382;2022-11-04T04:07:16;11.90;81.70
43651;DHT22;29247;50.944;5.382;2022-11-04T04:12:29;11.90;81.80
43651;DHT22;29247;50.944;5.382;2022-11-04T04:15:14;11.90;81.90
43651;DHT22;29247;50.944;5.382;2022-11-04T04:18:09;11.90;81.90
43651;DHT22;29247;50.944;5.382;2022-11-04T04:20:37;11.90;81.80
43651;DHT22;29247;50.944;5.382;2022-11-04T04:23:14;11.90;81.60
43651;DHT22;29247;50.944;5.382;2022-11-04T04:26:02;11.90;81.50
43651;DHT22;29247;50.944;5.382;2022-11-04T04:28:49;11.80;81.20
43651;DHT22;29247;50.944;5.382;2022-11-04T04:31:19;11.80;81.20
43651;DHT22;29247;50.944;5.382;2022-11-04T04:34:05;11.70;81.40
43651;DHT22;29247;50.944;5.382;2022-11-04T04:36:40;11.70;81.40
43651;DHT22;29247;50.944;5.382;2022-11-04T04:39:11;11.70;81.40
43651;DHT22;29247;50.944;5.382;2022-11-04T04:41:57;11.70;81.40
43651;DHT22;29247;50.944;5.382;2022-11-04T04:44:44;11.70;81.50
43651;DHT22;29247;50.944;5.382;2022-11-04T04:47:33;11.70;81.60
43651;DHT22;29247;50.944;5.382;2022-11-04T04:50:00;11.60;81.70
43651;DHT22;29247;50.944;5.382;2022-11-04T04:52:35;11.60;82.10
43651;DHT22;29247;50.944;5.382;2022-11-04T04:55:01;11.60;82.20
43651;DHT22;29247;50.944;5.382;2022-11-04T04:57:27;11.70;82.30
43651;DHT22;29247;50.944;5.382;2022-11-04T04:59:54;11.70;82.50
43651;DHT22;29247;50.944;5.382;2022-11-04T05:02:24;11.70;82.50
43651;DHT22;29247;50.944;5.382;2022-11-04T05:04:52;11.70;82.50
43651;DHT22;29247;50.944;5.382;2022-11-04T05:07:17;11.70;82.60
43651;DHT22;29247;50.944;5.382;2022-11-04T05:09:49;11.70;82.70
43651;DHT22;29247;50.944;5.382;2022-11-04T05:12:17;11.80;82.60
43651;DHT22;29247;50.944;5.382;2022-11-04T05:14:43;11.70;82.60
43651;DHT22;29247;50.944;5.382;2022-11-04T05:17:11;11.80;83.40
43651;DHT22;29247;50.944;5.382;2022-11-04T05:19:37;11.80;82.70
43651;DHT22;29247;50.944;5.382;2022-11-04T05:22:05;11.80;82.70
43651;DHT22;29247;50.944;5.382;2022-11-04T05:24:31;11.80;82.70
43651;DHT22;29247;50.944;5.382;2022-11-04T05:26:59;11.80;82.70
43651;DHT22;29247;50.944;5.382;2022-11-04T05:29:29;11.80;82.70
43651;DHT22;29247;50.944;5.382;2022-11-04T05:31:56;11.80;82.70
43651;DHT22;29247;50.944;5.382;2022-11-04T05:34:21;11.70;82.50
43651;DHT22;29247;50.944;5.382;2022-11-04T05:36:49;11.70;82.50
43651;DHT22;29247;50.944;5.382;2022-11-04T05:39:18;11.70;82.60
43651;DHT22;29247;50.944;5.382;2022-11-04T05:41:46;11.70;82.70
43651;DHT22;29247;50.944;5.382;2022-11-04T05:44:16;11.70;82.80
43651;DHT22;29247;50.944;5.382;2022-11-04T05:46:42;11.70;82.80
43651;DHT22;29247;50.944;5.382;2022-11-04T05:49:10;11.70;83.00
43651;DHT22;29247;50.944;5.382;2022-11-04T05:51:38;11.70;83.10
43651;DHT22;29247;50.944;5.382;2022-11-04T05:54:06;11.80;83.10
43651;DHT22;29247;50.944;5.382;2022-11-04T05:56:36;11.80;83.10
43651;DHT22;29247;50.944;5.382;2022-11-04T05:59:02;11.80;83.00
43651;DHT22;29247;50.944;5.382;2022-11-04T06:01:36;11.80;83.10
43651;DHT22;29247;50.944;5.382;2022-11-04T06:04:03;11.80;83.10
43651;DHT22;29247;50.944;5.382;2022-11-04T06:06:32;11.80;83.10
43651;DHT22;29247;50.944;5.382;2022-11-04T06:08:58;11.70;83.00
43651;DHT22;29247;50.944;5.382;2022-11-04T06:11:26;11.70;83.10
43651;DHT22;29247;50.944;5.382;2022-11-04T06:13:57;11.70;83.10
43651;DHT22;29247;50.944;5.382;2022-11-04T06:16:25;11.70;83.10
43651;DHT22;29247;50.944;5.382;2022-11-04T06:18:54;11.70;83.10
43651;DHT22;29247;50.944;5.382;2022-11-04T06:23:49;11.70;83.10
43651;DHT22;29247;50.944;5.382;2022-11-04T06:26:15;11.70;82.90
43651;DHT22;29247;50.944;5.382;2022-11-04T06:28:41;11.70;82.80
43651;DHT22;29247;50.944;5.382;2022-11-04T06:31:16;11.70;82.70
43651;DHT22;29247;50.944;5.382;2022-11-04T06:33:43;11.60;82.70
43651;DHT22;29247;50.944;5.382;2022-11-04T06:36:12;11.60;82.60
43651;DHT22;29247;50.944;5.382;2022-11-04T06:38:45;11.60;82.70
43651;DHT22;29247;50.944;5.382;2022-11-04T06:41:15;11.60;82.80
43651;DHT22;29247;50.944;5.382;2022-11-04T06:43:43;11.60;82.80
43651;DHT22;29247;50.944;5.382;2022-11-04T06:46:38;11.50;82.90
43651;DHT22;29247;50.944;5.382;2022-11-04T06:49:06;11.60;83.10
43651;DHT22;29247;50.944;5.382;2022-11-04T06:51:37;11.60;83.10
43651;DHT22;29247;50.944;5.382;2022-11-04T06:54:05;11.50;83.20
43651;DHT22;29247;50.944;5.382;2022-11-04T06:56:31;11.60;83.50
43651;DHT22;29247;50.944;5.382;2022-11-04T06:58:57;11.60;83.60
43651;DHT22;29247;50.944;5.382;2022-11-04T07:01:26;11.60;83.70
43651;DHT22;29247;50.944;5.382;2022-11-04T07:03:57;11.60;83.80
43651;DHT22;29247;50.944;5.382;2022-11-04T07:06:27;11.60;83.80
43651;DHT22;29247;50.944;5.382;2022-11-04T07:08:59;11.70;83.80
43651;DHT22;29247;50.944;5.382;2022-11-04T07:11:27;11.70;83.90
43651;DHT22;29247;50.944;5.382;2022-11-04T07:13:56;11.70;83.90
43651;DHT22;29247;50.944;5.382;2022-11-04T07:16:22;11.70;83.90
43651;DHT22;29247;50.944;5.382;2022-11-04T07:18:47;11.70;83.90
43651;DHT22;29247;50.944;5.382;2022-11-04T07:21:19;11.70;83.90
43651;DHT22;29247;50.944;5.382;2022-11-04T07:23:45;11.70;84.00
43651;DHT22;29247;50.944;5.382;2022-11-04T07:26:12;11.70;84.10
43651;DHT22;29247;50.944;5.382;2022-11-04T07:28:41;11.80;84.20
43651;DHT22;29247;50.944;5.382;2022-11-04T07:31:07;11.80;84.30
43651;DHT22;29247;50.944;5.382;2022-11-04T07:33:33;11.80;84.30
43651;DHT22;29247;50.944;5.382;2022-11-04T07:36:10;11.80;84.50
43651;DHT22;29247;50.944;5.382;2022-11-04T07:38:41;11.70;84.60
43651;DHT22;29247;50.944;5.382;2022-11-04T07:41:07;11.90;84.60
43651;DHT22;29247;50.944;5.382;2022-11-04T07:43:35;11.90;84.70
43651;DHT22;29247;50.944;5.382;2022-11-04T07:46:11;11.90;84.90
43651;DHT22;29247;50.944;5.382;2022-11-04T07:48:41;11.90;85.00
43651;DHT22;29247;50.944;5.382;2022-11-04T07:51:08;12.00;85.10
43651;DHT22;29247;50.944;5.382;2022-11-04T07:53:35;12.00;85.00
43651;DHT22;29247;50.944;5.382;2022-11-04T07:56:05;12.00;85.10
43651;DHT22;29247;50.944;5.382;2022-11-04T07:58:38;12.10;85.00
43651;DHT22;29247;50.944;5.382;2022-11-04T08:01:10;12.10;85.00
43651;DHT22;29247;50.944;5.382;2022-11-04T08:03:41;12.10;85.10
43651;DHT22;29247;50.944;5.382;2022-11-04T08:06:12;12.10;85.00
43651;DHT22;29247;50.944;5.382;2022-11-04T08:08:38;12.10;85.10
43651;DHT22;29247;50.944;5.382;2022-11-04T08:11:06;12.20;85.00
43651;DHT22;29247;50.944;5.382;2022-11-04T08:13:36;12.20;85.00
43651;DHT22;29247;50.944;5.382;2022-11-04T08:16:07;12.20;85.20
43651;DHT22;29247;50.944;5.382;2022-11-04T08:18:38;12.20;85.30
43651;DHT22;29247;50.944;5.382;2022-11-04T08:21:04;12.20;85.30
43651;DHT22;29247;50.944;5.382;2022-11-04T08:23:31;12.30;85.50
43651;DHT22;29247;50.944;5.382;2022-11-04T08:26:05;12.30;85.60
43651;DHT22;29247;50.944;5.382;2022-11-04T08:28:31;12.40;85.60
43651;DHT22;29247;50.944;5.382;2022-11-04T08:31:04;12.40;85.60
43651;DHT22;29247;50.944;5.382;2022-11-04T08:33:34;12.40;85.60
43651;DHT22;29247;50.944;5.382;2022-11-04T08:36:25;12.50;85.70
43651;DHT22;29247;50.944;5.382;2022-11-04T08:38:55;12.50;85.70
43651;DHT22;29247;50.944;5.382;2022-11-04T08:41:29;12.60;85.60
43651;DHT22;29247;50.944;5.382;2022-11-04T08:43:58;12.60;85.60
43651;DHT22;29247;50.944;5.382;2022-11-04T08:46:32;12.60;85.60
43651;DHT22;29247;50.944;5.382;2022-11-04T08:48:58;12.70;85.60
43651;DHT22;29247;50.944;5.382;2022-11-04T08:51:25;12.70;85.60
43651;DHT22;29247;50.944;5.382;2022-11-04T08:53:51;12.80;85.70
43651;DHT22;29247;50.944;5.382;2022-11-04T08:56:26;12.80;85.70
43651;DHT22;29247;50.944;5.382;2022-11-04T08:58:57;12.80;85.70
43651;DHT22;29247;50.944;5.382;2022-11-04T09:01:26;12.90;85.60
43651;DHT22;29247;50.944;5.382;2022-11-04T09:03:53;13.00;85.60
43651;DHT22;29247;50.944;5.382;2022-11-04T09:06:23;12.90;85.40
43651;DHT22;29247;50.944;5.382;2022-11-04T09:08:49;13.00;85.30
43651;DHT22;29247;50.944;5.382;2022-11-04T09:11:22;13.00;85.20
43651;DHT22;29247;50.944;5.382;2022-11-04T09:13:50;13.00;85.10
43651;DHT22;29247;50.944;5.382;2022-11-04T09:16:18;13.00;85.30
43651;DHT22;29247;50.944;5.382;2022-11-04T09:18:43;13.00;85.40
43651;DHT22;29247;50.944;5.382;2022-11-04T09:21:12;13.10;85.40
43651;DHT22;29247;50.944;5.382;2022-11-04T09:23:38;13.10;85.40
43651;DHT22;29247;50.944;5.382;2022-11-04T09:26:12;13.20;85.30
43651;DHT22;29247;50.944;5.382;2022-11-04T09:28:41;13.20;85.30
43651;DHT22;29247;50.944;5.382;2022-11-04T09:31:10;13.20;85.30
43651;DHT22;29247;50.944;5.382;2022-11-04T09:33:39;13.20;85.20
43651;DHT22;29247;50.944;5.382;2022-11-04T09:36:09;13.30;85.20
43651;DHT22;29247;50.944;5.382;2022-11-04T09:38:36;13.30;85.20
43651;DHT22;29247;50.944;5.382;2022-11-04T09:41:32;13.30;84.90
43651;DHT22;29247;50.944;5.382;2022-11-04T09:46:58;13.40;84.70
43651;DHT22;29247;50.944;5.382;2022-11-04T09:49:31;13.40;84.50
43651;DHT22;29247;50.944;5.382;2022-11-04T09:52:07;13.40;84.30
43651;DHT22;29247;50.944;5.382;2022-11-04T09:54:42;13.40;84.20
43651;DHT22;29247;50.944;5.382;2022-11-04T09:57:15;13.40;84.10
43651;DHT22;29247;50.944;5.382;2022-11-04T09:59:42;13.30;84.00
43651;DHT22;29247;50.944;5.382;2022-11-04T10:08:19;13.30;84.10
43651;DHT22;29247;50.944;5.382;2022-11-04T10:27:22;13.40;85.00
43651;DHT22;29247;50.944;5.382;2022-11-04T10:29:57;13.40;85.10
43651;DHT22;29247;50.944;5.382;2022-11-04T10:32:31;13.50;85.20
43651;DHT22;29247;50.944;5.382;2022-11-04T10:35:01;13.50;85.40
43651;DHT22;29247;50.944;5.382;2022-11-04T10:37:30;13.60;85.60
43651;DHT22;29247;50.944;5.382;2022-11-04T10:40:24;13.70;85.70
43651;DHT22;29247;50.944;5.382;2022-11-04T10:42:53;13.80;85.30
43651;DHT22;29247;50.944;5.382;2022-11-04T10:45:24;13.90;84.90
43651;DHT22;29247;50.944;5.382;2022-11-04T10:47:58;14.00;84.80
43651;DHT22;29247;50.944;5.382;2022-11-04T10:50:40;14.10;84.60
43651;DHT22;29247;50.944;5.382;2022-11-04T10:53:27;14.10;84.00
43651;DHT22;29247;50.944;5.382;2022-11-04T10:58:45;14.30;83.40
43651;DHT22;29247;50.944;5.382;2022-11-04T11:01:34;14.30;82.30
43651;DHT22;29247;50.944;5.382;2022-11-04T11:04:00;14.30;81.80
43651;DHT22;29247;50.944;5.382;2022-11-04T11:06:31;14.30;81.20
43651;DHT22;29247;50.944;5.382;2022-11-04T11:09:17;14.30;81.30
43651;DHT22;29247;50.944;5.382;2022-11-04T11:11:48;14.30;81.70
43651;DHT22;29247;50.944;5.382;2022-11-04T11:16:50;14.30;81.10
43651;DHT22;29247;50.944;5.382;2022-11-04T11:19:25;14.30;81.20
43651;DHT22;29247;50.944;5.382;2022-11-04T11:21:58;14.40;81.50
43651;DHT22;29247;50.944;5.382;2022-11-04T11:24:27;14.40;81.20
43651;DHT22;29247;50.944;5.382;2022-11-04T11:26:59;14.50;80.50
43651;DHT22;29247;50.944;5.382;2022-11-04T11:29:31;14.40;80.30
43651;DHT22;29247;50.944;5.382;2022-11-04T11:32:06;14.40;80.60
43651;DHT22;29247;50.944;5.382;2022-11-04T11:34:44;14.50;80.50
43651;DHT22;29247;50.944;5.382;2022-11-04T11:37:22;14.50;80.60
43651;DHT22;29247;50.944;5.382;2022-11-04T11:39:49;14.50;80.00
43651;DHT22;29247;50.944;5.382;2022-11-04T11:42:18;14.50;80.00
43651;DHT22;29247;50.944;5.382;2022-11-04T11:44:53;14.50;79.80
43651;DHT22;29247;50.944;5.382;2022-11-04T11:47:35;14.50;79.90
43651;DHT22;29247;50.944;5.382;2022-11-04T11:50:25;14.50;80.00
43651;DHT22;29247;50.944;5.382;2022-11-04T11:53:15;14.50;79.90
43651;DHT22;29247;50.944;5.382;2022-11-04T11:55:57;14.50;80.00
43651;DHT22;29247;50.944;5.382;2022-11-04T11:58:41;14.50;79.90
43651;DHT22;29247;50.944;5.382;2022-11-04T12:03:44;14.60;80.00
43651;DHT22;29247;50.944;5.382;2022-11-04T12:06:35;14.60;79.70
43651;DHT22;29247;50.944;5.382;2022-11-04T12:11:47;14.60;79.30
43651;DHT22;29247;50.944;5.382;2022-11-04T12:23:01;14.60;78.20
43651;DHT22;29247;50.944;5.382;2022-11-04T12:25:44;14.50;76.90
43651;DHT22;29247;50.944;5.382;2022-11-04T12:31:21;14.40;77.00
43651;DHT22;29247;50.944;5.382;2022-11-04T12:39:47;14.40;77.60
43651;DHT22;29247;50.944;5.382;2022-11-04T12:48:30;14.40;77.90
43651;DHT22;29247;50.944;5.382;2022-11-04T12:56:40;14.40;78.30
43651;DHT22;29247;50.944;5.382;2022-11-04T12:59:34;14.40;78.40
43651;DHT22;29247;50.944;5.382;2022-11-04T13:02:12;14.40;78.60
43651;DHT22;29247;50.944;5.382;2022-11-04T13:04:48;14.40;78.50
43651;DHT22;29247;50.944;5.382;2022-11-04T13:07:35;14.40;78.30
43651;DHT22;29247;50.944;5.382;2022-11-04T13:10:18;14.40;78.40
43651;DHT22;29247;50.944;5.382;2022-11-04T13:12:49;14.40;78.30
43651;DHT22;29247;50.944;5.382;2022-11-04T13:15:23;14.40;78.20
43651;DHT22;29247;50.944;5.382;2022-11-04T13:17:58;14.40;78.00
43651;DHT22;29247;50.944;5.382;2022-11-04T13:20:26;14.50;78.20
43651;DHT22;29247;50.944;5.382;2022-11-04T13:22:58;14.50;78.20
43651;DHT22;29247;50.944;5.382;2022-11-04T13:25:39;14.50;78.30
43651;DHT22;29247;50.944;5.382;2022-11-04T13:28:14;14.50;78.10
43651;DHT22;29247;50.944;5.382;2022-11-04T13:31:18;14.50;78.00
43651;DHT22;29247;50.944;5.382;2022-11-04T13:44:30;14.40;78.60
43651;DHT22;29247;50.944;5.382;2022-11-04T13:47:04;14.30;78.50
43651;DHT22;29247;50.944;5.382;2022-11-04T13:49:36;14.30;78.70
43651;DHT22;29247;50.944;5.382;2022-11-04T13:52:11;14.20;78.60
43651;DHT22;29247;50.944;5.382;2022-11-04T13:54:50;14.20;78.90
43651;DHT22;29247;50.944;5.382;2022-11-04T13:57:30;14.20;79.20
43651;DHT22;29247;50.944;5.382;2022-11-04T14:02:48;14.20;80.00
43651;DHT22;29247;50.944;5.382;2022-11-04T14:16:36;14.30;81.00
43651;DHT22;29247;50.944;5.382;2022-11-04T14:22:13;14.30;81.20
43651;DHT22;29247;50.944;5.382;2022-11-04T14:24:41;14.30;81.20
43651;DHT22;29247;50.944;5.382;2022-11-04T14:29:52;14.30;81.40
43651;DHT22;29247;50.944;5.382;2022-11-04T14:32:26;14.30;81.30
43651;DHT22;29247;50.944;5.382;2022-11-04T14:35:02;14.30;81.40
43651;DHT22;29247;50.944;5.382;2022-11-04T14:37:33;14.30;81.40
43651;DHT22;29247;50.944;5.382;2022-11-04T14:40:05;14.30;81.50
43651;DHT22;29247;50.944;5.382;2022-11-04T14:43:15;14.30;81.40
43651;DHT22;29247;50.944;5.382;2022-11-04T14:45:45;14.30;81.50
43651;DHT22;29247;50.944;5.382;2022-11-04T14:48:22;14.30;81.60
43651;DHT22;29247;50.944;5.382;2022-11-04T14:50:51;14.30;81.70
43651;DHT22;29247;50.944;5.382;2022-11-04T14:53:41;14.30;81.80
43651;DHT22;29247;50.944;5.382;2022-11-04T14:56:13;14.30;81.90
43651;DHT22;29247;50.944;5.382;2022-11-04T14:59:21;14.30;81.90
43651;DHT22;29247;50.944;5.382;2022-11-04T15:01:47;14.20;82.10
43651;DHT22;29247;50.944;5.382;2022-11-04T15:04:25;14.20;82.10
43651;DHT22;29247;50.944;5.382;2022-11-04T15:07:03;14.20;82.40
43651;DHT22;29247;50.944;5.382;2022-11-04T15:09:49;14.20;82.50
43651;DHT22;29247;50.944;5.382;2022-11-04T15:12:17;14.10;82.60
43651;DHT22;29247;50.944;5.382;2022-11-04T15:15:29;14.10;82.70
43651;DHT22;29247;50.944;5.382;2022-11-04T15:18:15;14.10;83.10
43651;DHT22;29247;50.944;5.382;2022-11-04T15:20:54;14.10;83.20
43651;DHT22;29247;50.944;5.382;2022-11-04T15:23:32;14.10;83.40
43651;DHT22;29247;50.944;5.382;2022-11-04T15:26:02;14.10;83.50
43651;DHT22;29247;50.944;5.382;2022-11-04T15:28:45;14.10;83.50
43651;DHT22;29247;50.944;5.382;2022-11-04T15:33:48;14.10;83.70
43651;DHT22;29247;50.944;5.382;2022-11-04T15:36:21;14.00;83.70
43651;DHT22;29247;50.944;5.382;2022-11-04T15:41:39;14.00;84.00
43651;DHT22;29247;50.944;5.382;2022-11-04T15:44:29;14.00;83.90
43651;DHT22;29247;50.944;5.382;2022-11-04T15:47:00;13.90;83.90
43651;DHT22;29247;50.944;5.382;2022-11-04T15:49:32;13.90;83.90
43651;DHT22;29247;50.944;5.382;2022-11-04T15:52:06;13.90;83.90
43651;DHT22;29247;50.944;5.382;2022-11-04T15:54:38;13.80;84.20
43651;DHT22;29247;50.944;5.382;2022-11-04T15:57:36;13.80;84.00
43651;DHT22;29247;50.944;5.382;2022-11-04T16:00:20;13.70;84.10
43651;DHT22;29247;50.944;5.382;2022-11-04T16:03:02;13.70;84.20
43651;DHT22;29247;50.944;5.382;2022-11-04T16:05:33;13.70;84.40
43651;DHT22;29247;50.944;5.382;2022-11-04T16:08:22;13.60;84.60
43651;DHT22;29247;50.944;5.382;2022-11-04T16:11:06;13.60;84.80
43651;DHT22;29247;50.944;5.382;2022-11-04T16:13:32;13.60;84.70
43651;DHT22;29247;50.944;5.382;2022-11-04T16:18:33;13.50;84.50
43651;DHT22;29247;50.944;5.382;2022-11-04T16:21:08;13.40;84.50
43651;DHT22;29247;50.944;5.382;2022-11-04T16:23:49;13.40;85.30
43651;DHT22;29247;50.944;5.382;2022-11-04T16:26:15;13.40;84.80
43651;DHT22;29247;50.944;5.382;2022-11-04T16:28:54;13.40;84.60
43651;DHT22;29247;50.944;5.382;2022-11-04T16:33:45;13.30;84.90
43651;DHT22;29247;50.944;5.382;2022-11-04T16:36:15;13.40;85.00
43651;DHT22;29247;50.944;5.382;2022-11-04T16:38:52;13.30;85.00
43651;DHT22;29247;50.944;5.382;2022-11-04T16:41:18;13.30;85.20
43651;DHT22;29247;50.944;5.382;2022-11-04T16:43:47;13.30;85.10
43651;DHT22;29247;50.944;5.382;2022-11-04T16:46:18;13.30;85.20
43651;DHT22;29247;50.944;5.382;2022-11-04T16:48:47;13.30;85.40
43651;DHT22;29247;50.944;5.382;2022-11-04T16:51:20;13.30;85.50
43651;DHT22;29247;50.944;5.382;2022-11-04T16:53:53;13.30;85.60
43651;DHT22;29247;50.944;5.382;2022-11-04T16:56:24;13.30;85.70
43651;DHT22;29247;50.944;5.382;2022-11-04T16:58:54;13.30;85.90
43651;DHT22;29247;50.944;5.382;2022-11-04T17:01:22;13.30;85.80
43651;DHT22;29247;50.944;5.382;2022-11-04T17:03:48;13.20;86.20
43651;DHT22;29247;50.944;5.382;2022-11-04T17:06:15;13.20;85.70
43651;DHT22;29247;50.944;5.382;2022-11-04T17:08:41;13.20;85.80
43651;DHT22;29247;50.944;5.382;2022-11-04T17:11:10;13.20;85.80
43651;DHT22;29247;50.944;5.382;2022-11-04T17:13:39;13.20;86.00
43651;DHT22;29247;50.944;5.382;2022-11-04T17:16:12;13.20;85.90
43651;DHT22;29247;50.944;5.382;2022-11-04T17:18:43;13.20;85.90
43651;DHT22;29247;50.944;5.382;2022-11-04T17:21:12;13.10;85.80
43651;DHT22;29247;50.944;5.382;2022-11-04T17:23:43;13.10;85.80
43651;DHT22;29247;50.944;5.382;2022-11-04T17:26:12;13.20;85.90
43651;DHT22;29247;50.944;5.382;2022-11-04T17:28:43;13.10;85.90
43651;DHT22;29247;50.944;5.382;2022-11-04T17:31:18;13.10;85.80
43651;DHT22;29247;50.944;5.382;2022-11-04T17:33:46;13.10;85.80
43651;DHT22;29247;50.944;5.382;2022-11-04T17:36:16;13.10;85.70
43651;DHT22;29247;50.944;5.382;2022-11-04T17:38:43;13.00;85.60
43651;DHT22;29247;50.944;5.382;2022-11-04T17:41:08;13.00;85.50
43651;DHT22;29247;50.944;5.382;2022-11-04T17:43:57;13.00;85.40
43651;DHT22;29247;50.944;5.382;2022-11-04T17:46:31;12.90;85.30
43651;DHT22;29247;50.944;5.382;2022-11-04T17:49:11;12.90;85.40
43651;DHT22;29247;50.944;5.382;2022-11-04T17:51:42;12.80;85.30
43651;DHT22;29247;50.944;5.382;2022-11-04T17:54:08;12.80;85.30
43651;DHT22;29247;50.944;5.382;2022-11-04T17:56:36;12.80;85.30
43651;DHT22;29247;50.944;5.382;2022-11-04T17:59:03;12.80;85.50
43651;DHT22;29247;50.944;5.382;2022-11-04T18:01:33;12.70;85.60
43651;DHT22;29247;50.944;5.382;2022-11-04T18:04:04;12.70;85.60
43651;DHT22;29247;50.944;5.382;2022-11-04T18:06:32;12.70;85.60
43651;DHT22;29247;50.944;5.382;2022-11-04T18:08:59;12.70;85.60
43651;DHT22;29247;50.944;5.382;2022-11-04T18:11:27;12.70;85.60
43651;DHT22;29247;50.944;5.382;2022-11-04T18:14:12;12.70;85.80
43651;DHT22;29247;50.944;5.382;2022-11-04T18:16:41;12.60;85.80
43651;DHT22;29247;50.944;5.382;2022-11-04T18:19:08;12.60;85.80
43651;DHT22;29247;50.944;5.382;2022-11-04T18:21:34;12.60;85.80
43651;DHT22;29247;50.944;5.382;2022-11-04T18:24:00;12.60;85.90
43651;DHT22;29247;50.944;5.382;2022-11-04T18:26:29;12.60;85.90
43651;DHT22;29247;50.944;5.382;2022-11-04T18:28:54;12.60;85.90
43651;DHT22;29247;50.944;5.382;2022-11-04T18:31:29;12.60;85.90